Time;durP1;ratioP1;P1;durP2;ratioP2;P2;SDS_P1;SDS_P2;PMS_P1;PMS_P2;Temp;Humidity;BMP_temperature;BMP_pressure;BME280_temperature;BME280_humidity;BME280_pressure;Samples;Min_cycle;Max_cycle;Signal;HPM_P1;HPM_P2
2022/11/02 00:01:53;;;;;;;25.23;13.70;;;;;;;14.09;88.23;99953.78;5111943;28;20236;-67
2022/11/02 00:04:22;;;;;;;33.37;15.13;;;;;;;14.02;88.32;99954.88;5111906;28;20233;-67
2022/11/02 00:06:49;;;;;;;24.50;15.20;;;;;;;14.01;88.20;99946.19;5112078;28;20632;-68
2022/11/02 00:09:16;;;;;;;27.97;15.90;;;;;;;14.08;88.33;99946.84;5112259;28;20242;-69
2022/11/02 00:11:42;;;;;;;38.00;17.07;;;;;;;14.06;88.17;99948.66;5111927;28;20200;-60
2022/11/02 00:14:09;;;;;;;30.83;15.93;;;;;;;14.01;88.65;99948.81;5111801;28;20216;-59
2022/11/02 00:16:39;;;;;;;25.60;16.00;;;;;;;14.00;88.61;99944.47;5111653;28;20297;-67
2022/11/02 00:19:07;;;;;;;29.67;14.80;;;;;;;14.03;88.55;99946.13;5112238;28;20288;-60
2022/11/02 00:21:36;;;;;;;22.93;15.17;;;;;;;13.93;88.97;99942.16;5111808;28;20199;-59
2022/11/02 00:24:05;;;;;;;19.57;13.83;;;;;;;13.94;89.52;99943.88;5111658;28;20202;-59
2022/11/02 00:26:35;;;;;;;30.33;14.10;;;;;;;13.89;89.83;99935.34;5111734;28;20190;-62
2022/11/02 00:29:02;;;;;;;20.03;12.87;;;;;;;13.92;89.62;99940.44;5111548;28;20750;-61
2022/11/02 00:31:29;;;;;;;28.70;14.03;;;;;;;13.94;89.49;99943.88;5111603;28;20670;-66
2022/11/02 00:33:56;;;;;;;20.90;13.73;;;;;;;13.90;89.67;99931.81;5111215;28;20198;-67
2022/11/02 00:36:24;;;;;;;23.57;13.53;;;;;;;13.87;89.81;99926.75;5111448;28;20198;-59
2022/11/02 00:38:53;;;;;;;21.80;13.50;;;;;;;13.86;90.29;99932.84;5111557;27;20202;-66
2022/11/02 00:41:21;;;;;;;25.30;14.10;;;;;;;13.82;90.20;99924.28;5111385;28;20205;-58
2022/11/02 00:43:48;;;;;;;20.90;14.10;;;;;;;13.62;90.22;99898.03;5111279;28;20199;-59
2022/11/02 00:46:15;;;;;;;34.97;14.67;;;;;;;13.78;90.23;99933.97;5111272;28;20214;-60
2022/11/02 00:48:41;;;;;;;23.80;13.40;;;;;;;13.82;89.90;99930.34;5111345;27;20194;-59
2022/11/02 00:51:08;;;;;;;22.60;12.67;;;;;;;13.82;89.92;99932.97;5111345;28;20599;-67
2022/11/02 00:53:35;;;;;;;24.00;12.67;;;;;;;13.76;90.16;99934.94;5111066;28;20191;-67
2022/11/02 00:56:04;;;;;;;29.93;12.53;;;;;;;13.64;90.88;99928.41;5110838;28;20230;-68
2022/11/02 00:58:31;;;;;;;17.93;11.83;;;;;;;13.68;91.20;99927.38;5110433;28;20725;-67
2022/11/02 01:00:58;;;;;;;26.60;13.00;;;;;;;13.56;91.89;99924.31;5110799;28;20201;-67
2022/11/02 01:03:25;;;;;;;22.27;13.43;;;;;;;13.44;92.58;99910.81;5110864;28;20285;-67
2022/11/02 01:05:52;;;;;;;17.53;13.03;;;;;;;13.51;93.68;99919.28;5110831;28;20222;-59
2022/11/02 01:08:19;;;;;;;17.23;12.93;;;;;;;13.53;94.04;99914.88;5110916;28;20548;-59
2022/11/02 01:10:45;;;;;;;18.67;12.33;;;;;;;13.44;94.60;99913.41;5110766;28;20194;-66
2022/11/02 01:13:14;;;;;;;24.07;13.47;;;;;;;13.38;95.59;99908.41;5110704;28;20195;-67
2022/11/02 01:15:41;;;;;;;24.30;14.13;;;;;;;13.25;96.84;99903.66;5110788;28;20201;-67
2022/11/02 01:18:09;;;;;;;23.03;12.67;;;;;;;13.09;98.20;99901.50;5110686;28;20255;-67
2022/11/02 01:20:36;;;;;;;24.90;13.00;;;;;;;13.05;99.17;99894.72;5110607;28;20191;-67
2022/11/02 01:23:03;;;;;;;24.07;12.60;;;;;;;13.06;99.01;99896.44;5110536;28;20198;-66
2022/11/02 01:25:30;;;;;;;16.40;13.00;;;;;;;13.12;98.74;99900.56;5110153;28;20265;-66
2022/11/02 01:27:57;;;;;;;22.97;13.00;;;;;;;13.17;97.78;99898.72;5110369;28;20252;-67
2022/11/02 01:30:25;;;;;;;18.03;12.37;;;;;;;13.13;96.83;99901.44;5110324;28;20212;-67
2022/11/02 01:32:52;;;;;;;16.83;12.37;;;;;;;13.05;97.21;99899.09;5110287;28;20197;-68
2022/11/02 01:35:19;;;;;;;27.27;13.83;;;;;;;13.03;97.66;99900.88;5110368;28;20201;-66
2022/11/02 01:37:46;;;;;;;21.63;12.93;;;;;;;12.96;98.16;99900.25;5110183;28;20201;-68
2022/11/02 01:40:13;;;;;;;18.87;13.07;;;;;;;12.87;98.55;99899.66;5110305;28;20195;-67
2022/11/02 01:42:40;;;;;;;20.17;12.17;;;;;;;12.84;99.10;99899.78;5110489;28;20199;-67
2022/11/02 01:45:10;;;;;;;22.47;12.93;;;;;;;12.86;98.62;99888.41;5110188;28;20701;-67
2022/11/02 01:47:43;;;;;;;23.83;12.20;;;;;;;12.97;98.35;99899.34;5110223;28;20206;-66
2022/11/02 01:50:13;;;;;;;22.27;13.33;;;;;;;13.03;97.93;99900.88;5110129;28;20484;-61
2022/11/02 01:52:40;;;;;;;16.80;12.43;;;;;;;12.98;98.10;99887.16;5110211;28;20194;-60
2022/11/02 01:55:12;;;;;;;19.07;12.60;;;;;;;12.95;98.23;99892.47;5110455;28;20690;-67
2022/11/02 01:57:41;;;;;;;20.57;12.80;;;;;;;12.86;98.33;99892.78;5110013;28;20261;-66
2022/11/02 02:00:11;;;;;;;19.33;12.53;;;;;;;12.71;98.94;99888.88;5110136;28;20599;-67
2022/11/02 02:02:45;;;;;;;23.50;13.57;;;;;;;12.64;100.00;99901.22;5110159;28;20198;-60
2022/11/02 02:05:14;;;;;;;23.43;13.63;;;;;;;12.56;100.00;99891.97;5109891;28;20320;-59
2022/11/02 02:07:42;;;;;;;20.17;12.23;;;;;;;12.50;100.00;99897.38;5110007;28;20213;-59
2022/11/02 02:10:09;;;;;;;19.87;12.97;;;;;;;12.40;100.00;99901.16;5110273;28;20194;-61
2022/11/02 02:12:39;;;;;;;22.37;13.33;;;;;;;12.24;100.00;99877.31;5110293;28;20578;-60
2022/11/02 02:15:07;;;;;;;23.63;13.07;;;;;;;12.38;100.00;99889.94;5109984;28;20205;-60
2022/11/02 02:17:45;;;;;;;22.27;13.47;;;;;;;12.36;100.00;99887.38;5109852;28;20285;-60
2022/11/02 02:20:20;;;;;;;21.67;13.50;;;;;;;12.32;100.00;99886.59;5109695;28;20289;-60
2022/11/02 02:23:26;;;;;;;22.43;13.90;;;;;;;12.22;100.00;99889.53;5109785;28;20194;-68
2022/11/02 02:26:29;;;;;;;21.90;14.03;;;;;;;12.22;100.00;99879.97;5100786;28;20304;-67
2022/11/02 02:29:02;;;;;;;22.67;14.10;;;;;;;12.26;100.00;99883.34;5090432;28;20208;-66
2022/11/02 02:31:37;;;;;;;27.20;13.70;;;;;;;12.37;100.00;99886.47;5109788;28;20591;-67
2022/11/02 02:34:09;;;;;;;20.90;14.03;;;;;;;12.35;100.00;99886.50;5109610;28;20194;-67
2022/11/02 02:36:44;;;;;;;24.43;14.13;;;;;;;12.33;100.00;99893.50;5109971;28;20209;-60
2022/11/02 02:39:17;;;;;;;22.63;14.43;;;;;;;12.30;100.00;99887.56;5109582;28;20204;-59
2022/11/02 02:41:53;;;;;;;23.57;14.20;;;;;;;12.25;100.00;99895.50;5109985;28;20684;-59
2022/11/02 02:44:24;;;;;;;27.27;13.33;;;;;;;12.22;100.00;99892.97;5109702;28;20190;-59
2022/11/02 02:46:56;;;;;;;20.73;13.87;;;;;;;12.20;100.00;99893.91;5109434;28;20219;-61
2022/11/02 02:49:31;;;;;;;24.83;14.43;;;;;;;12.20;100.00;99894.78;5109679;28;20198;-59
2022/11/02 02:52:00;;;;;;;22.77;13.97;;;;;;;12.26;100.00;99898.97;5109677;28;20666;-60
2022/11/02 02:54:32;;;;;;;26.77;13.77;;;;;;;12.23;100.00;99899.91;5109730;28;20278;-65
2022/11/02 02:57:06;;;;;;;25.97;14.07;;;;;;;12.22;100.00;99895.59;5109156;28;20236;-59
2022/11/02 02:59:39;;;;;;;19.90;13.37;;;;;;;12.06;100.00;99877.88;5109605;28;20222;-59
2022/11/02 03:02:08;;;;;;;29.70;15.10;;;;;;;12.11;100.00;99889.84;5109513;28;20226;-59
2022/11/02 03:04:35;;;;;;;20.97;14.13;;;;;;;12.02;100.00;99881.44;5109408;28;20764;-59
2022/11/02 03:07:03;;;;;;;21.10;14.33;;;;;;;11.91;100.00;99860.94;5109182;28;20237;-59
2022/11/02 03:09:36;;;;;;;24.90;14.93;;;;;;;11.88;100.00;99884.44;5109251;28;20194;-59
2022/11/02 03:12:18;;;;;;;20.67;14.07;;;;;;;11.91;100.00;99873.94;5109276;28;20198;-66
2022/11/02 03:14:58;;;;;;;21.80;14.83;;;;;;;11.99;100.00;99878.03;5109445;28;20190;-65
2022/11/02 03:17:30;;;;;;;25.77;14.83;;;;;;;11.99;100.00;99871.97;5109299;28;20190;-66
2022/11/02 03:20:04;;;;;;;24.60;14.47;;;;;;;11.99;100.00;99878.03;5109195;28;20241;-66
2022/11/02 03:22:39;;;;;;;26.00;14.67;;;;;;;11.96;100.00;99866.88;5113009;28;20595;-65
2022/11/02 03:25:15;;;;;;;22.00;14.37;;;;;;;11.88;100.00;99872.28;5112722;28;20190;-66
2022/11/02 03:27:51;;;;;;;27.67;15.87;;;;;;;11.76;100.00;99875.22;5112896;28;20205;-66
2022/11/02 03:30:22;;;;;;;23.53;14.50;;;;;;;11.62;100.00;99875.56;5112818;28;20666;-65
2022/11/02 03:32:55;;;;;;;30.83;14.33;;;;;;;11.59;100.00;99862.69;5112726;28;20195;-58
2022/11/02 03:35:29;;;;;;;24.03;14.07;;;;;;;11.66;100.00;99855.53;5112989;28;20285;-58
2022/11/02 03:38:00;;;;;;;24.07;14.50;;;;;;;11.67;100.00;99870.25;5112557;28;20289;-61
2022/11/02 03:40:33;;;;;;;24.27;13.60;;;;;;;11.63;100.00;99874.69;5112633;28;20289;-61
2022/11/02 03:43:02;;;;;;;21.00;13.20;;;;;;;11.63;100.00;99868.63;5112375;28;20208;-61
2022/11/02 03:45:38;;;;;;;18.07;13.50;;;;;;;11.66;100.00;99878.94;5112827;28;20686;-61
2022/11/02 03:48:08;;;;;;;19.07;13.93;;;;;;;11.62;100.00;99878.16;5112265;28;20237;-60
2022/11/02 03:50:38;;;;;;;20.03;13.13;;;;;;;11.67;100.00;99877.19;5112640;28;20615;-59
2022/11/02 03:53:09;;;;;;;22.00;13.50;;;;;;;11.58;100.00;99881.75;5112472;28;20280;-60
2022/11/02 03:55:41;;;;;;;21.60;13.83;;;;;;;11.51;100.00;99882.81;5112003;28;20384;-61
2022/11/02 03:58:10;;;;;;;17.23;13.73;;;;;;;11.50;100.00;99883.72;5112533;28;20281;-60
2022/11/02 04:00:44;;;;;;;22.00;13.07;;;;;;;11.53;100.00;99883.63;5112331;28;20199;-59
2022/11/02 04:03:12;;;;;;;20.70;13.97;;;;;;;11.44;100.00;99881.28;5112185;27;20198;-66
2022/11/02 04:05:39;;;;;;;25.17;13.57;;;;;;;11.34;100.00;99878.97;5111910;28;20226;-59
2022/11/02 04:08:23;;;;;;;27.83;14.40;;;;;;;11.32;100.00;99876.41;5112148;28;20563;-66
2022/11/02 04:16:22;;;;;;;17.97;12.80;;;;;;;11.32;100.00;99884.19;5111556;28;20236;-59
2022/11/02 04:21:33;;;;;;;21.53;13.90;;;;;;;11.26;100.00;99884.38;5111955;28;20202;-67
2022/11/02 04:26:45;;;;;;;28.10;14.00;;;;;;;11.20;100.00;99884.50;5111762;28;20213;-60
2022/11/02 04:29:12;;;;;;;28.47;14.33;;;;;;;11.19;100.00;99881.06;5107680;28;20301;-67
2022/11/02 04:31:40;;;;;;;22.73;14.50;;;;;;;11.18;100.00;99879.34;5110529;28;20229;-66
2022/11/02 04:34:06;;;;;;;27.33;14.90;;;;;;;11.23;100.00;99874.03;5109798;28;20214;-67
2022/11/02 04:36:33;;;;;;;23.50;13.63;;;;;;;11.23;100.00;99863.66;5109649;28;20209;-67
2022/11/02 04:38:59;;;;;;;22.00;14.67;;;;;;;11.22;100.00;99874.94;5110597;28;20263;-68
2022/11/02 04:41:41;;;;;;;22.27;13.67;;;;;;;11.01;100.00;99847.75;5110049;28;20191;-67
2022/11/02 04:44:09;;;;;;;23.50;13.13;;;;;;;10.94;100.00;99874.78;5107217;28;20187;-67
2022/11/02 04:46:37;;;;;;;25.87;13.30;;;;;;;10.84;100.00;99865.47;5109805;28;20221;-67
2022/11/02 04:49:06;;;;;;;24.87;13.43;;;;;;;10.82;100.00;99868.16;5109750;28;20658;-68
2022/11/02 04:51:33;;;;;;;25.30;13.03;;;;;;;10.78;100.00;99870.84;5109111;28;20202;-68
2022/11/02 04:54:00;;;;;;;16.63;11.50;;;;;;;10.74;100.00;99882.19;5106716;28;20286;-66
2022/11/02 04:56:29;;;;;;;18.90;12.30;;;;;;;10.54;100.00;99857.53;5103303;28;20218;-68
2022/11/02 04:58:57;;;;;;;22.83;12.13;;;;;;;10.71;100.00;99887.47;5106488;28;20216;-65
2022/11/02 05:01:27;;;;;;;19.03;12.67;;;;;;;10.67;100.00;99884.06;5109639;28;20194;-67
2022/11/02 05:03:54;;;;;;;23.53;12.67;;;;;;;10.23;100.00;99801.22;5109682;28;20205;-66
2022/11/02 05:06:24;;;;;;;19.13;12.00;;;;;;;10.69;100.00;99873.66;5110400;28;20632;-68
2022/11/02 05:08:51;;;;;;;22.37;12.17;;;;;;;10.84;100.00;99881.06;5110716;28;20200;-68
2022/11/02 05:11:18;;;;;;;23.27;13.27;;;;;;;10.88;100.00;99883.56;5110382;28;20230;-62
2022/11/02 05:13:45;;;;;;;19.00;13.60;;;;;;;10.86;100.00;99890.53;5110495;28;20195;-62
2022/11/02 05:16:14;;;;;;;24.47;14.10;;;;;;;10.90;100.00;99889.59;5111988;28;20698;-61
2022/11/02 05:18:41;;;;;;;26.03;13.57;;;;;;;10.95;100.00;99884.25;5111673;28;20203;-61
2022/11/02 05:21:09;;;;;;;18.77;13.67;;;;;;;10.91;100.00;99873.13;5110040;28;20194;-58
2022/11/02 05:23:38;;;;;;;23.20;13.90;;;;;;;10.85;100.00;99878.44;5110679;28;20673;-58
2022/11/02 05:26:07;;;;;;;23.00;13.10;;;;;;;10.90;100.00;99892.19;5110571;28;20249;-59
2022/11/02 05:28:34;;;;;;;23.43;14.10;;;;;;;11.08;100.00;99895.19;5108985;28;20204;-59
2022/11/02 05:31:02;;;;;;;20.80;13.93;;;;;;;11.26;100.00;99892.16;5109150;28;20208;-59
2022/11/02 05:33:30;;;;;;;24.67;13.37;;;;;;;11.35;100.00;99886.72;5107949;28;20240;-60
2022/11/02 05:35:58;;;;;;;26.77;14.70;;;;;;;11.58;100.00;99892.16;5108790;28;20682;-58
2022/11/02 05:38:26;;;;;;;24.70;13.67;;;;;;;11.85;100.00;99892.34;5109527;28;20194;-59
2022/11/02 05:40:55;;;;;;;26.90;13.37;;;;;;;11.97;100.00;99889.38;5109525;28;20199;-58
2022/11/02 05:43:22;;;;;;;27.60;13.80;;;;;;;11.96;100.00;99888.53;5109708;28;20195;-59
2022/11/02 05:45:54;;;;;;;31.17;13.43;;;;;;;12.00;99.85;99904.91;5110310;28;20638;-59
2022/11/02 05:48:21;;;;;;;21.93;12.93;;;;;;;12.18;99.72;99894.00;5110611;28;20209;-61
2022/11/02 05:50:49;;;;;;;33.33;13.37;;;;;;;12.79;97.39;99894.69;5110618;28;20194;-60
2022/11/02 05:53:16;;;;;;;26.17;14.30;;;;;;;14.10;89.01;99901.50;5110149;28;20195;-59
2022/11/02 05:55:43;;;;;;;29.73;14.17;;;;;;;15.37;79.64;99912.16;5108858;28;20241;-59
2022/11/02 05:58:11;;;;;;;26.97;13.73;;;;;;;16.35;73.65;99912.22;5108554;28;20195;-61
2022/11/02 06:00:39;;;;;;;25.00;13.33;;;;;;;16.93;68.50;99912.13;5106354;28;20190;-60
2022/11/02 06:03:06;;;;;;;19.00;13.07;;;;;;;16.93;68.83;99917.38;5108619;28;20199;-59
2022/11/02 06:05:33;;;;;;;28.50;13.70;;;;;;;16.70;69.70;99914.06;5108499;28;20205;-60
2022/11/02 06:08:01;;;;;;;25.73;12.83;;;;;;;16.29;70.38;99915.09;5108657;28;20697;-61
2022/11/02 06:10:29;;;;;;;23.57;12.60;;;;;;;16.00;72.85;99912.97;5108698;28;20191;-60
2022/11/02 06:12:56;;;;;;;29.07;13.83;;;;;;;15.80;74.00;99909.44;5106021;28;20281;-67
2022/11/02 06:15:25;;;;;;;25.87;13.50;;;;;;;15.64;74.82;99913.66;5108663;28;20277;-66
2022/11/02 06:17:52;;;;;;;31.70;15.03;;;;;;;15.44;76.29;99918.88;5108726;28;20202;-67
2022/11/02 06:20:19;;;;;;;33.97;14.63;;;;;;;15.13;76.70;99917.50;5108529;28;20278;-67
2022/11/02 06:22:46;;;;;;;33.60;14.60;;;;;;;15.07;77.53;99915.16;5108466;28;20202;-67
2022/11/02 06:25:14;;;;;;;32.97;15.77;;;;;;;15.04;77.00;99920.50;5108520;28;20725;-66
2022/11/02 06:27:41;;;;;;;30.50;15.67;;;;;;;15.04;76.66;99915.28;5107759;28;20215;-66
2022/11/02 06:30:09;;;;;;;27.33;15.30;;;;;;;15.05;76.78;99924.81;5108563;28;20190;-66
2022/11/02 06:32:38;;;;;;;24.93;16.40;;;;;;;14.98;77.47;99914.69;5108467;28;20281;-59
2022/11/02 06:35:05;;;;;;;38.20;16.30;;;;;;;15.01;77.97;99918.00;5108352;28;20187;-66
2022/11/02 06:37:35;;;;;;;36.80;17.70;;;;;;;15.02;77.74;99921.47;5105510;28;20197;-66
2022/11/02 06:40:02;;;;;;;34.23;17.00;;;;;;;15.01;77.99;99922.41;5108049;28;20237;-66
2022/11/02 06:42:29;;;;;;;37.67;17.67;;;;;;;15.03;76.74;99904.88;5108424;28;20224;-67
2022/11/02 06:45:01;;;;;;;32.80;19.00;;;;;;;15.18;76.95;99922.56;5108015;28;20281;-67
2022/11/02 06:47:31;;;;;;;33.33;18.57;;;;;;;14.95;77.82;99928.72;5108338;28;20220;-68
2022/11/02 06:49:59;;;;;;;30.93;16.47;;;;;;;14.71;79.31;99911.38;5108602;28;20693;-60
2022/11/02 06:52:26;;;;;;;31.03;17.40;;;;;;;15.04;78.50;99920.50;5108100;28;20329;-59
2022/11/02 06:54:53;;;;;;;51.53;16.77;;;;;;;15.11;78.57;99916.75;5105520;28;20198;-60
2022/11/02 06:57:21;;;;;;;32.47;15.63;;;;;;;15.15;77.00;99900.00;5111640;28;20229;-58
2022/11/02 06:59:48;;;;;;;28.87;15.63;;;;;;;15.40;76.37;99912.91;5112623;27;20281;-59
2022/11/02 07:02:15;;;;;;;29.97;16.17;;;;;;;15.56;75.78;99913.16;5112418;28;20194;-60
2022/11/02 07:04:42;;;;;;;33.07;14.90;;;;;;;15.80;75.00;99911.25;5112471;28;20667;-60
2022/11/02 07:07:10;;;;;;;26.60;12.00;;;;;;;15.87;73.94;99905.66;5112180;28;20376;-60
2022/11/02 07:09:38;;;;;;;23.50;11.83;;;;;;;16.04;73.01;99901.41;5112483;28;20696;-60
2022/11/02 07:12:05;;;;;;;17.40;10.47;;;;;;;16.01;72.37;99891.09;5112476;28;20205;-60
2022/11/02 07:14:32;;;;;;;15.27;9.97;;;;;;;16.09;72.66;99902.06;5112117;28;20198;-60
2022/11/02 07:16:59;;;;;;;14.03;10.10;;;;;;;16.16;72.26;99906.09;5111536;28;20631;-58
2022/11/02 07:19:26;;;;;;;23.73;11.47;;;;;;;16.28;70.87;99898.53;5111551;28;20197;-60
2022/11/02 07:21:53;;;;;;;25.43;11.93;;;;;;;16.38;70.75;99900.72;5111795;28;20580;-60
2022/11/02 07:24:21;;;;;;;20.23;11.40;;;;;;;16.37;70.06;99899.88;5111781;28;20786;-61
2022/11/02 07:26:49;;;;;;;17.93;10.77;;;;;;;16.42;70.69;99892.66;5111891;28;20709;-61
2022/11/02 07:29:17;;;;;;;18.97;11.37;;;;;;;16.54;70.01;99894.72;5111237;28;20206;-59
2022/11/02 07:31:44;;;;;;;25.60;11.20;;;;;;;16.61;68.76;99883.00;5112142;28;20198;-60
2022/11/02 07:34:12;;;;;;;20.93;11.90;;;;;;;16.73;67.23;99894.72;5112558;28;20201;-60
2022/11/02 07:36:39;;;;;;;22.33;11.97;;;;;;;16.70;67.60;99879.97;5112825;28;20585;-58
2022/11/02 07:39:07;;;;;;;22.33;13.90;;;;;;;16.76;67.68;99885.84;5112648;28;20194;-59
2022/11/02 07:41:35;;;;;;;34.93;15.77;;;;;;;16.85;67.57;99882.78;5112486;28;20273;-67
2022/11/02 07:44:02;;;;;;;21.97;11.20;;;;;;;16.90;66.80;99876.41;5112528;28;20612;-66
2022/11/02 07:46:29;;;;;;;23.67;9.77;;;;;;;16.69;66.14;99859.09;5110964;28;20217;-67
2022/11/02 07:48:56;;;;;;;15.60;9.27;;;;;;;16.78;66.55;99879.63;5110901;28;20688;-58
2022/11/02 07:51:23;;;;;;;21.30;8.87;;;;;;;16.89;66.35;99873.88;5111113;28;20197;-58
2022/11/02 07:53:50;;;;;;;22.27;10.97;;;;;;;16.94;65.99;99869.22;5111149;28;20281;-66
2022/11/02 07:56:17;;;;;;;22.10;10.07;;;;;;;17.02;65.74;99867.94;5111122;28;20254;-66
2022/11/02 07:58:46;;;;;;;27.13;9.57;;;;;;;17.05;65.70;99864.28;5112250;28;20198;-67
2022/11/02 08:01:12;;;;;;;16.13;9.33;;;;;;;17.11;64.76;99861.38;5112247;28;20372;-66
2022/11/02 08:03:39;;;;;;;23.63;9.27;;;;;;;17.06;66.15;99853.72;5111931;28;20194;-65
2022/11/02 08:06:06;;;;;;;20.10;9.63;;;;;;;17.17;64.10;99858.44;5112006;28;20674;-60
2022/11/02 08:08:33;;;;;;;25.03;9.40;;;;;;;17.23;63.96;99852.91;5111845;28;20232;-58
2022/11/02 08:11:05;;;;;;;16.10;9.90;;;;;;;17.10;64.36;99837.84;5111965;28;20662;-65
2022/11/02 08:13:32;;;;;;;18.70;9.43;;;;;;;17.19;66.05;99846.09;5111990;28;20593;-67
2022/11/02 08:16:01;;;;;;;20.83;9.07;;;;;;;17.32;65.94;99841.94;5111713;28;20667;-65
2022/11/02 08:18:29;;;;;;;19.00;9.30;;;;;;;17.44;64.43;99843.06;5111723;28;20201;-65
2022/11/02 08:20:57;;;;;;;22.70;9.00;;;;;;;17.42;63.29;99814.28;5111862;28;20202;-66
2022/11/02 08:23:25;;;;;;;25.77;8.40;;;;;;;17.69;62.30;99833.03;5111703;28;20252;-65
2022/11/02 08:25:54;;;;;;;20.37;8.33;;;;;;;17.81;62.45;99834.16;5111881;28;20186;-65
2022/11/02 08:28:22;;;;;;;23.77;8.00;;;;;;;17.90;61.46;99830.19;5111373;28;20222;-65
2022/11/02 08:30:49;;;;;;;21.55;8.63;;;;;;;18.00;60.89;99826.13;5111403;28;20201;-66
2022/11/02 08:33:19;;;;;;;20.25;8.13;;;;;;;18.01;60.46;99826.06;5111411;28;20213;-66
2022/11/02 08:35:47;;;;;;;14.95;8.75;;;;;;;18.06;60.57;99816.13;5111639;28;20226;-66
2022/11/02 08:38:14;;;;;;;18.48;8.98;;;;;;;18.14;60.31;99821.84;5111401;28;20197;-60
2022/11/02 08:40:41;;;;;;;25.75;9.88;;;;;;;18.14;59.73;99803.44;5111283;28;20666;-60
2022/11/02 08:43:10;;;;;;;23.38;9.55;;;;;;;18.21;59.45;99816.22;5111281;28;20204;-60
2022/11/02 08:45:38;;;;;;;22.48;10.63;;;;;;;18.31;60.02;99797.22;5111470;28;20583;-60
2022/11/02 08:48:06;;;;;;;26.60;8.73;;;;;;;18.21;59.85;99784.69;5111101;28;20309;-60
2022/11/02 08:50:35;;;;;;;21.92;9.30;;;;;;;18.43;58.58;99806.22;5111263;28;20213;-58
2022/11/02 08:53:03;;;;;;;26.05;8.25;;;;;;;18.51;58.16;99796.94;5110942;28;20198;-58
2022/11/02 08:55:30;;;;;;;21.10;8.68;;;;;;;18.57;57.63;99798.41;5110276;28;20226;-59
2022/11/02 08:57:58;;;;;;;22.25;8.65;;;;;;;18.68;56.93;99803.91;5111884;28;20575;-59
2022/11/02 09:00:27;;;;;;;40.22;9.55;;;;;;;18.81;57.41;99799.66;5111072;28;20280;-63
2022/11/02 09:03:02;;;;;;;93.38;11.90;;;;;;;18.85;56.21;99788.00;5111406;28;20727;-64
2022/11/02 09:05:30;;;;;;;31.48;8.13;;;;;;;18.92;56.51;99785.03;5110029;28;20273;-65
2022/11/02 09:08:00;;;;;;;795.50;50.50;;;;;;;19.02;56.15;99783.53;5110321;28;20297;-63
2022/11/02 09:10:28;;;;;;;186.60;14.15;;;;;;;19.04;56.04;99781.69;5111222;28;20198;-67
2022/11/02 09:12:55;;;;;;;215.32;16.77;;;;;;;19.14;56.12;99778.41;5111027;28;20289;-69
2022/11/02 09:15:22;;;;;;;156.40;14.13;;;;;;;19.28;54.70;99772.31;5110761;28;20591;-68
2022/11/02 09:17:49;;;;;;;46.47;7.93;;;;;;;19.42;53.97;99774.94;5110526;28;20187;-68
2022/11/02 09:20:17;;;;;;;36.88;8.20;;;;;;;19.46;54.46;99768.56;5110145;28;20194;-67
2022/11/02 09:22:45;;;;;;;33.50;7.78;;;;;;;19.51;53.68;99758.63;5110416;28;20202;-68
2022/11/02 09:25:14;;;;;;;33.67;8.15;;;;;;;19.65;53.96;99757.75;5110313;28;20620;-68
2022/11/02 09:27:41;;;;;;;236.85;19.73;;;;;;;19.83;52.54;99750.50;5109823;28;20310;-67
2022/11/02 09:30:09;;;;;;;44.45;9.00;;;;;;;19.91;51.85;99748.22;5110699;28;20198;-68
2022/11/02 09:32:37;;;;;;;135.77;14.48;;;;;;;19.99;51.69;99745.09;5110559;28;20206;-67
2022/11/02 09:35:06;;;;;;;77.43;10.07;;;;;;;20.12;51.41;99736.31;5110337;28;20217;-68
2022/11/02 09:37:33;;;;;;;24.70;8.48;;;;;;;20.24;51.27;99737.31;5110116;28;20281;-64
2022/11/02 09:40:00;;;;;;;30.17;8.48;;;;;;;20.34;50.68;99730.50;5110234;28;20312;-64
2022/11/02 09:42:35;;;;;;;19.50;7.70;;;;;;;20.57;49.54;99726.38;5110566;28;20657;-64
2022/11/02 09:45:06;;;;;;;18.55;8.15;;;;;;;20.70;49.06;99727.25;5110281;28;20202;-63
2022/11/02 09:47:42;;;;;;;21.23;8.02;;;;;;;20.86;48.67;99724.44;5110336;28;20222;-64
2022/11/02 09:50:15;;;;;;;17.55;8.15;;;;;;;20.95;48.57;99723.78;5110477;28;20197;-64
2022/11/02 09:52:45;;;;;;;13.63;7.97;;;;;;;21.05;48.05;99713.44;5110458;28;20226;-67
2022/11/02 09:55:19;;;;;;;19.02;7.53;;;;;;;21.18;47.59;99709.03;5110024;28;20199;-68
2022/11/02 09:57:53;;;;;;;18.92;7.45;;;;;;;21.33;47.21;99710.63;5109934;28;20227;-68
2022/11/02 10:00:20;;;;;;;23.88;7.28;;;;;;;21.56;46.30;99712.47;5109927;28;20590;-69
2022/11/02 10:02:57;;;;;;;18.67;7.70;;;;;;;21.63;45.49;99692.63;5110186;28;20585;-67
2022/11/02 10:05:38;;;;;;;21.40;9.45;;;;;;;21.81;45.53;99708.94;5109961;28;20194;-67
2022/11/02 10:08:19;;;;;;;24.67;9.93;;;;;;;21.81;45.68;99681.66;5109897;28;20218;-67
2022/11/02 10:10:57;;;;;;;16.88;7.03;;;;;;;22.03;45.36;99695.03;5109857;28;20593;-68
2022/11/02 10:13:37;;;;;;;21.80;7.60;;;;;;;22.03;45.55;99687.09;5110266;28;20682;-64
2022/11/02 10:16:08;;;;;;;19.08;7.72;;;;;;;22.20;45.06;99686.72;5110256;28;20205;-65
2022/11/02 10:18:37;;;;;;;19.55;7.65;;;;;;;22.26;44.57;99680.13;5110308;28;20629;-64
2022/11/02 10:21:08;;;;;;;25.92;7.18;;;;;;;22.44;43.98;99678.75;5109915;28;20207;-64
2022/11/02 10:23:40;;;;;;;19.80;7.50;;;;;;;22.56;43.73;99679.66;5109885;28;20198;-64
2022/11/02 10:26:14;;;;;;;21.50;7.10;;;;;;;22.49;43.77;99646.66;5110125;28;20199;-65
2022/11/02 10:28:46;;;;;;;16.67;6.45;;;;;;;22.67;43.55;99672.59;5109845;28;20257;-65
2022/11/02 10:31:23;;;;;;;15.18;6.47;;;;;;;22.72;43.06;99658.97;5113202;28;20197;-65
2022/11/02 10:33:50;;;;;;;27.15;7.50;;;;;;;22.79;42.91;99654.97;5113954;28;20201;-65
2022/11/02 10:36:33;;;;;;;22.83;6.25;;;;;;;23.04;42.31;99651.22;5114050;28;20692;-64
2022/11/02 10:39:13;;;;;;;18.73;5.80;;;;;;;23.18;42.26;99645.69;5113774;27;20199;-67
2022/11/02 10:41:54;;;;;;;25.95;6.80;;;;;;;23.27;42.09;99646.78;5113784;28;20195;-64
2022/11/02 10:44:45;;;;;;;22.05;7.25;;;;;;;23.41;41.89;99622.69;5114120;27;20195;-64
2022/11/02 10:47:17;;;;;;;23.25;7.47;;;;;;;23.67;41.37;99639.19;5113617;28;20286;-65
2022/11/02 10:50:14;;;;;;;21.48;6.63;;;;;;;23.79;40.45;99633.72;5113809;28;20722;-64
2022/11/02 10:52:43;;;;;;;20.13;7.28;;;;;;;23.91;40.18;99626.59;5113640;28;20256;-64
2022/11/02 10:55:20;;;;;;;17.45;7.25;;;;;;;24.06;37.82;99627.09;5113808;28;20218;-65
2022/11/02 10:57:48;;;;;;;27.33;7.55;;;;;;;24.19;37.06;99630.44;5113484;28;20226;-65
2022/11/02 11:00:25;;;;;;;28.25;6.93;;;;;;;24.34;35.93;99618.59;5113791;28;20194;-64
2022/11/02 11:03:06;;;;;;;22.60;6.93;;;;;;;24.40;35.73;99602.13;5113524;28;20285;-65
2022/11/02 11:05:36;;;;;;;31.00;6.28;;;;;;;24.52;35.19;99608.22;5113559;27;20193;-62
2022/11/02 11:08:05;;;;;;;11.63;5.20;;;;;;;24.69;34.19;99609.44;5113634;28;20783;-63
2022/11/02 11:10:37;;;;;;;18.17;5.85;;;;;;;24.75;34.42;99600.94;5113573;28;20263;-63
2022/11/02 11:13:06;;;;;;;14.27;5.07;;;;;;;24.84;34.09;99608.09;5113962;28;20198;-65
2022/11/02 11:15:34;;;;;;;13.60;4.75;;;;;;;24.88;33.40;99601.56;5113760;28;20202;-65
2022/11/02 11:18:13;;;;;;;16.65;5.88;;;;;;;24.92;33.41;99603.00;5113284;28;20186;-63
2022/11/02 11:20:41;;;;;;;11.57;4.88;;;;;;;24.95;33.35;99598.25;5113363;28;20191;-65
2022/11/02 11:23:18;;;;;;;15.98;5.10;;;;;;;24.98;33.01;99597.16;5112972;28;20194;-65
2022/11/02 11:25:55;;;;;;;17.95;5.22;;;;;;;25.07;32.92;99587.53;5113351;28;20198;-65
2022/11/02 11:28:24;;;;;;;19.30;6.10;;;;;;;25.10;32.82;99574.84;5112968;28;20291;-70
2022/11/02 11:31:10;;;;;;;14.45;5.28;;;;;;;25.17;32.61;99586.59;5112758;28;20229;-68
2022/11/02 11:33:48;;;;;;;18.20;5.55;;;;;;;25.21;32.71;99566.78;5113332;28;20234;-69
2022/11/02 11:36:24;;;;;;;21.23;5.63;;;;;;;25.28;32.45;99575.06;5112415;28;20198;-69
2022/11/02 11:38:52;;;;;;;26.35;5.57;;;;;;;25.34;32.47;99571.84;5112595;28;20190;-68
2022/11/02 11:41:20;;;;;;;18.60;4.68;;;;;;;25.40;32.20;99571.28;5111606;28;20285;-65